createdAt,value
2023-05-10T00:02:41.610Z,100751.58
2023-05-10T00:07:46.852Z,100748.21
2023-05-10T00:12:49.480Z,100745.54
2023-05-10T00:17:52.108Z,100743.79
2023-05-10T00:22:54.703Z,100739.00
2023-05-10T00:27:58.309Z,100740.54
2023-05-10T00:33:01.381Z,100744.24
2023-05-10T00:38:04.021Z,100738.52
2023-05-10T00:43:06.641Z,100734.52
2023-05-10T00:48:09.665Z,100733.10
2023-05-10T00:53:13.116Z,100732.73
2023-05-10T00:58:15.954Z,100733.55
2023-05-10T01:03:18.558Z,100735.73
2023-05-10T01:08:21.833Z,100732.86
2023-05-10T01:13:31.717Z,100726.99
2023-05-10T01:18:37.412Z,100721.95
2023-05-10T01:23:45.928Z,100724.27
2023-05-10T01:28:54.272Z,100721.18
2023-05-10T01:34:01.577Z,100717.48
2023-05-10T01:39:30.710Z,100716.86
2023-05-10T01:44:54.920Z,100715.03
2023-05-10T01:50:02.367Z,100716.13
2023-05-10T01:55:12.352Z,100712.96
2023-05-10T02:00:17.328Z,100714.88
2023-05-10T02:05:22.453Z,100716.14
2023-05-10T02:10:25.045Z,100720.60
2023-05-10T02:15:29.416Z,100719.27
2023-05-10T02:20:32.865Z,100714.56
2023-05-10T02:25:37.007Z,100719.30
2023-05-10T02:30:40.310Z,100721.84
2023-05-10T02:35:43.348Z,100717.83
2023-05-10T02:40:48.496Z,100713.46
2023-05-10T02:45:51.090Z,100707.60
2023-05-10T02:50:57.051Z,100702.30
2023-05-10T02:56:08.001Z,100699.62
2023-05-10T03:01:11.003Z,100702.47
2023-05-10T03:06:13.602Z,100704.86
2023-05-10T03:11:33.106Z,100701.77
2023-05-10T03:16:44.986Z,100702.33
2023-05-10T03:21:52.436Z,100706.44
2023-05-10T03:26:57.998Z,100704.04
2023-05-10T03:32:01.217Z,100699.41
2023-05-10T03:37:03.955Z,100692.35
2023-05-10T03:42:06.643Z,100689.36
2023-05-10T03:47:09.331Z,100693.66
2023-05-10T03:52:12.016Z,100691.30
2023-05-10T03:57:14.521Z,100696.94
2023-05-10T04:02:17.198Z,100695.27
2023-05-10T04:07:19.886Z,100700.20
2023-05-10T04:12:22.718Z,100700.69
2023-05-10T04:17:25.289Z,100697.87
2023-05-10T04:22:29.999Z,100694.61
2023-05-10T04:27:32.685Z,100700.44
2023-05-10T04:32:35.317Z,100700.83
2023-05-10T04:37:37.925Z,100704.14
2023-05-10T04:42:44.995Z,100705.78
2023-05-10T04:47:47.584Z,100701.86
2023-05-10T04:52:50.122Z,100698.32
2023-05-10T04:57:52.870Z,100696.88
2023-05-10T05:02:55.523Z,100689.41
2023-05-10T05:07:58.439Z,100689.38
2023-05-10T05:13:01.108Z,100683.14
2023-05-10T05:18:03.872Z,100682.95
2023-05-10T05:23:06.538Z,100691.98
2023-05-10T05:28:09.321Z,100695.30
2023-05-10T05:33:12.997Z,100699.16
2023-05-10T05:38:15.605Z,100701.77
2023-05-10T05:43:18.214Z,100702.03
2023-05-10T05:48:21.217Z,100707.22
2023-05-10T05:53:24.597Z,100709.70
2023-05-10T05:58:27.861Z,100708.67
2023-05-10T06:03:30.526Z,100707.09
2023-05-10T06:08:35.852Z,100709.02
2023-05-10T06:13:38.467Z,100706.98
2023-05-10T06:18:41.332Z,100708.27
2023-05-10T06:23:44.761Z,100707.73
2023-05-10T06:28:47.350Z,100707.33
2023-05-10T06:33:49.997Z,100710.29
2023-05-10T06:38:52.754Z,100715.13
2023-05-10T06:43:55.228Z,100711.29
2023-05-10T06:48:57.837Z,100710.20
2023-05-10T06:54:01.041Z,100705.91
2023-05-10T06:59:03.939Z,100704.30
2023-05-10T07:04:08.426Z,100700.18
2023-05-10T07:09:11.958Z,100701.91
2023-05-10T07:14:14.547Z,100705.34
2023-05-10T07:19:17.084Z,100702.05
2023-05-10T07:24:19.742Z,100703.77
2023-05-10T07:29:22.275Z,100702.23
2023-05-10T07:34:24.856Z,100699.83
2023-05-10T07:39:28.623Z,100696.81
2023-05-10T07:44:31.249Z,100695.83
2023-05-10T07:49:34.028Z,100697.54
2023-05-10T07:54:36.701Z,100696.92
2023-05-10T07:59:39.212Z,100694.77
2023-05-10T08:04:42.005Z,100692.80
2023-05-10T08:09:44.638Z,100693.86
2023-05-10T08:14:47.217Z,100685.90
2023-05-10T08:19:49.756Z,100679.69
2023-05-10T08:24:52.347Z,100675.19
2023-05-10T08:29:54.896Z,100674.14
2023-05-10T08:34:57.441Z,100679.90
2023-05-10T08:40:00.015Z,100676.61
2023-05-10T08:45:04.217Z,100683.34
2023-05-10T08:50:07.964Z,100687.77
2023-05-10T08:55:10.583Z,100689.02
2023-05-10T09:00:14.330Z,100684.51
2023-05-10T09:05:18.856Z,100681.59
2023-05-10T09:10:22.671Z,100675.42
2023-05-10T09:15:25.501Z,100673.20
2023-05-10T09:20:28.120Z,100675.81
2023-05-10T09:25:30.798Z,100675.23
2023-05-10T09:30:33.719Z,100666.92
2023-05-10T09:35:37.030Z,100665.92
2023-05-10T09:40:39.643Z,100663.02
2023-05-10T09:45:42.314Z,100654.38
2023-05-10T09:50:44.954Z,100655.55
2023-05-10T09:55:51.363Z,100654.66
2023-05-10T10:00:54.669Z,100653.48
2023-05-10T10:05:57.860Z,100647.82
2023-05-10T10:11:00.566Z,100643.04
2023-05-10T10:16:03.617Z,100636.04
2023-05-10T10:21:09.070Z,100622.80
2023-05-10T10:26:12.725Z,100614.94
2023-05-10T10:31:29.162Z,100614.31
2023-05-10T10:36:34.188Z,100606.77
2023-05-10T10:41:42.842Z,100603.11
2023-05-10T10:47:03.373Z,100595.64
2023-05-10T10:52:37.882Z,100586.66
2023-05-10T10:57:48.085Z,100594.46
2023-05-10T11:02:57.898Z,100588.55
2023-05-10T11:08:07.256Z,100580.37
2023-05-10T11:13:11.069Z,100570.45
2023-05-10T11:18:21.637Z,100571.16
2023-05-10T11:23:24.661Z,100564.18
2023-05-10T11:28:28.113Z,100561.35
2023-05-10T11:33:30.855Z,100553.30
2023-05-10T11:38:35.117Z,100551.54
2023-05-10T11:43:39.246Z,100548.98
2023-05-10T11:48:42.928Z,100547.82
2023-05-10T11:53:45.477Z,100544.62
2023-05-10T11:58:55.064Z,100543.34
2023-05-10T12:04:02.294Z,100543.21
2023-05-10T12:09:09.014Z,100536.35
2023-05-10T12:14:12.171Z,100537.43
2023-05-10T12:19:20.799Z,100542.20
2023-05-10T12:24:26.307Z,100535.27
2023-05-10T12:29:31.492Z,100530.70
2023-05-10T12:34:36.875Z,100534.95
2023-05-10T12:39:45.569Z,100532.13
2023-05-10T12:44:48.155Z,100527.19
2023-05-10T12:49:52.069Z,100532.52
2023-05-10T12:54:54.965Z,100531.60
2023-05-10T12:59:59.016Z,100531.50
2023-05-10T13:05:03.150Z,100526.97
2023-05-10T13:10:07.295Z,100524.89
2023-05-10T13:15:10.850Z,100523.23
2023-05-10T13:20:13.451Z,100522.16
2023-05-10T13:25:16.034Z,100514.10
2023-05-10T13:30:18.872Z,100507.58
2023-05-10T13:35:22.030Z,100504.48
2023-05-10T13:40:24.635Z,100505.86
2023-05-10T13:45:27.303Z,100502.58
2023-05-10T13:50:31.056Z,100497.59
2023-05-10T13:56:22.424Z,100496.06
2023-05-10T14:01:25.277Z,100493.86
2023-05-10T14:06:28.220Z,100494.57
2023-05-10T14:11:31.251Z,100489.23
2023-05-10T14:16:34.397Z,100494.43
2023-05-10T14:21:37.449Z,100485.78
2023-05-10T14:26:40.036Z,100488.15
2023-05-10T14:31:42.681Z,100488.63
2023-05-10T14:36:45.271Z,100487.87
2023-05-10T14:41:48.262Z,100487.92
2023-05-10T14:46:50.893Z,100484.67
2023-05-10T14:51:53.704Z,100485.09
2023-05-10T14:56:56.562Z,100480.52
2023-05-10T15:02:00.637Z,100473.35
2023-05-10T15:07:04.081Z,100474.14
2023-05-10T15:12:07.089Z,100473.91
2023-05-10T15:17:11.095Z,100469.42
2023-05-10T15:22:13.658Z,100466.62
2023-05-10T15:27:16.556Z,100464.06
2023-05-10T15:32:19.271Z,100466.29
2023-05-10T15:37:23.875Z,100468.94
2023-05-10T15:42:26.448Z,100465.09
2023-05-10T15:47:32.115Z,100463.95
2023-05-10T15:52:36.056Z,100464.14
2023-05-10T15:57:40.466Z,100467.89
2023-05-10T16:02:43.340Z,100464.46
2023-05-10T16:07:46.761Z,100461.06
2023-05-10T16:12:49.401Z,100462.35
2023-05-10T16:17:52.088Z,100458.16
2023-05-10T16:22:54.689Z,100458.77
2023-05-10T16:27:57.364Z,100462.05
2023-05-10T16:33:01.354Z,100462.73
2023-05-10T16:38:03.941Z,100465.16
2023-05-10T16:43:06.542Z,100468.77
2023-05-10T16:48:12.021Z,100470.05
2023-05-10T16:53:14.633Z,100471.19
2023-05-10T16:58:17.183Z,100476.66
2023-05-10T17:03:19.865Z,100476.05
2023-05-10T17:08:22.560Z,100480.02
2023-05-10T17:13:25.160Z,100480.15
2023-05-10T17:18:27.804Z,100481.70
2023-05-10T17:23:30.389Z,100489.70
2023-05-10T17:28:33.147Z,100494.34
2023-05-10T17:33:35.713Z,100496.72
2023-05-10T17:38:38.333Z,100501.94
2023-05-10T17:43:41.897Z,100511.81
2023-05-10T17:48:44.428Z,100514.34
2023-05-10T17:53:46.985Z,100516.40
2023-05-10T17:58:50.526Z,100525.11
2023-05-10T18:03:53.439Z,100528.96
2023-05-10T18:08:56.207Z,100532.75
2023-05-10T18:13:58.809Z,100539.90
2023-05-10T18:19:01.482Z,100537.01
2023-05-10T18:24:05.730Z,100538.75
2023-05-10T18:29:08.618Z,100545.73
2023-05-10T18:34:11.184Z,100549.89
2023-05-10T18:39:14.106Z,100556.08
2023-05-10T18:44:16.681Z,100563.18
2023-05-10T18:49:19.226Z,100564.10
2023-05-10T18:54:21.805Z,100571.45
2023-05-10T18:59:24.974Z,100574.55
2023-05-10T19:04:28.281Z,100574.27
2023-05-10T19:09:30.831Z,100576.55
2023-05-10T19:14:33.460Z,100576.85
2023-05-10T19:19:37.647Z,100582.52
2023-05-10T19:24:40.443Z,100588.08
2023-05-10T19:29:42.981Z,100583.53
2023-05-10T19:34:45.663Z,100578.21
2023-05-10T19:39:48.244Z,100586.35
2023-05-10T19:44:50.947Z,100597.61
2023-05-10T19:49:53.604Z,100597.13
2023-05-10T19:54:56.250Z,100599.48
2023-05-10T19:59:58.779Z,100609.44
2023-05-10T20:05:01.710Z,100614.23
2023-05-10T20:10:04.493Z,100617.17
2023-05-10T20:15:07.971Z,100618.70
2023-05-10T20:20:12.233Z,100619.48
2023-05-10T20:25:16.150Z,100619.19
2023-05-10T20:30:19.465Z,100616.81
2023-05-10T20:35:22.412Z,100623.77
2023-05-10T20:40:24.943Z,100630.01
2023-05-10T20:45:27.623Z,100630.94
2023-05-10T20:50:30.333Z,100630.08
2023-05-10T20:55:32.880Z,100627.46
2023-05-10T21:00:35.528Z,100631.77
2023-05-10T21:05:38.035Z,100635.23
2023-05-10T21:10:40.625Z,100633.06
2023-05-10T21:15:43.206Z,100634.98
2023-05-10T21:20:45.740Z,100631.77
2023-05-10T21:25:48.490Z,100633.24
2023-05-10T21:30:51.757Z,100639.45
2023-05-10T21:35:54.324Z,100636.48
2023-05-10T21:40:56.989Z,100638.23
2023-05-10T21:45:59.516Z,100637.00
2023-05-10T21:51:02.240Z,100638.91
2023-05-10T21:56:05.873Z,100637.29
2023-05-10T22:01:08.587Z,100641.59
2023-05-10T22:06:11.225Z,100643.60
2023-05-10T22:11:16.543Z,100646.78
2023-05-10T22:16:19.129Z,100651.46
2023-05-10T22:21:21.845Z,100653.77
2023-05-10T22:26:26.011Z,100655.76
2023-05-10T22:31:29.075Z,100656.79
2023-05-10T22:36:32.313Z,100656.43
2023-05-10T22:41:34.829Z,100661.62
2023-05-10T22:46:38.623Z,100662.23
2023-05-10T22:51:41.168Z,100665.23
2023-05-10T22:56:43.812Z,100667.17
2023-05-10T23:01:46.368Z,100667.16
2023-05-10T23:06:48.964Z,100666.73
2023-05-10T23:11:51.467Z,100665.52
2023-05-10T23:16:54.276Z,100669.02
2023-05-10T23:21:56.847Z,100670.73
2023-05-10T23:26:59.440Z,100674.63
2023-05-10T23:32:02.023Z,100669.95
2023-05-10T23:37:04.598Z,100673.22
2023-05-10T23:42:07.327Z,100675.77
2023-05-10T23:47:09.855Z,100680.45
2023-05-10T23:52:12.417Z,100681.00
2023-05-10T23:57:14.934Z,100684.61
